createdAt,value
2023-01-20T00:02:35.336Z,99659.81
2023-01-20T00:07:39.587Z,99662.28
2023-01-20T00:12:42.423Z,99671.50
2023-01-20T00:17:45.295Z,99677.97
2023-01-20T00:22:49.459Z,99682.72
2023-01-20T00:27:53.435Z,99685.75
2023-01-20T00:32:56.463Z,99701.09
2023-01-20T00:38:00.645Z,99703.19
2023-01-20T00:43:03.553Z,99700.88
2023-01-20T00:48:06.978Z,99711.09
2023-01-20T00:53:11.095Z,99724.47
2023-01-20T00:58:13.912Z,99737.22
2023-01-20T01:03:16.728Z,99737.63
2023-01-20T01:08:20.998Z,99754.66
2023-01-20T01:13:23.770Z,99755.97
2023-01-20T01:18:26.693Z,99759.75
2023-01-20T01:23:30.883Z,99767.03
2023-01-20T01:28:33.671Z,99771.50
2023-01-20T01:33:36.619Z,99786.97
2023-01-20T01:38:40.906Z,99787.09
2023-01-20T01:44:01.796Z,99787.22
2023-01-20T01:49:05.606Z,99789.63
2023-01-20T01:54:12.479Z,99798.63
2023-01-20T01:59:15.275Z,99799.59
2023-01-20T02:04:20.939Z,99808.72
2023-01-20T02:09:25.370Z,99806.25
2023-01-20T02:14:29.943Z,99816.22
2023-01-20T02:20:08.007Z,99815.59
2023-01-20T02:25:47.739Z,99821.81
2023-01-20T02:30:58.002Z,99822.78
2023-01-20T02:36:04.524Z,99826.88
2023-01-20T02:41:09.277Z,99835.16
2023-01-20T02:46:14.936Z,99832.69
2023-01-20T02:51:20.421Z,99836.44
2023-01-20T02:56:26.033Z,99851.63
2023-01-20T03:01:31.730Z,99855.28
2023-01-20T03:06:37.141Z,99862.47
2023-01-20T03:11:42.159Z,99858.94
2023-01-20T03:16:48.126Z,99865.25
2023-01-20T03:21:52.331Z,99865.25
2023-01-20T03:26:55.292Z,99870.59
2023-01-20T03:31:59.000Z,99879.59
2023-01-20T03:37:03.268Z,99881.50
2023-01-20T03:42:08.671Z,99891.22
2023-01-20T03:47:14.629Z,99895.00
2023-01-20T03:52:19.443Z,99899.59
2023-01-20T03:57:23.949Z,99906.53
2023-01-20T04:02:27.116Z,99915.53
2023-01-20T04:07:31.774Z,99916.50
2023-01-20T04:12:34.642Z,99920.13
2023-01-20T04:17:37.424Z,99919.28
2023-01-20T04:22:45.087Z,99921.09
2023-01-20T04:27:47.813Z,99923.78
2023-01-20T04:32:50.570Z,99930.09
2023-01-20T04:37:54.796Z,99936.19
2023-01-20T04:42:57.836Z,99942.38
2023-01-20T04:48:00.586Z,99947.97
2023-01-20T04:53:04.695Z,99956.72
2023-01-20T04:58:07.489Z,99955.13
2023-01-20T05:03:10.331Z,99962.25
2023-01-20T05:08:14.466Z,99954.34
2023-01-20T05:13:17.375Z,99956.28
2023-01-20T05:18:20.187Z,99971.38
2023-01-20T05:23:24.378Z,99972.34
2023-01-20T05:28:27.228Z,99977.78
2023-01-20T05:33:30.129Z,99984.09
2023-01-20T05:38:34.327Z,99984.97
2023-01-20T05:43:37.118Z,99993.94
2023-01-20T05:48:39.902Z,100000.25
2023-01-20T05:53:44.030Z,100002.94
2023-01-20T05:58:46.829Z,100014.59
2023-01-20T06:03:49.907Z,100017.28
2023-01-20T06:08:54.361Z,100028.03
2023-01-20T06:13:57.124Z,100030.72
2023-01-20T06:19:00.094Z,100041.53
2023-01-20T06:24:04.414Z,100047.72
2023-01-20T06:29:07.228Z,100056.72
2023-01-20T06:34:11.344Z,100062.06
2023-01-20T06:39:15.551Z,100066.53
2023-01-20T06:44:18.340Z,100080.88
2023-01-20T06:49:21.173Z,100087.19
2023-01-20T06:54:25.693Z,100092.53
2023-01-20T06:59:28.477Z,100093.63
2023-01-20T07:04:31.405Z,100105.16
2023-01-20T07:09:35.601Z,100108.78
2023-01-20T07:14:38.525Z,100113.28
2023-01-20T07:19:41.357Z,100121.38
2023-01-20T07:24:45.645Z,100131.22
2023-01-20T07:29:48.430Z,100129.50
2023-01-20T07:34:51.310Z,100133.16
2023-01-20T07:39:55.561Z,100141.16
2023-01-20T07:44:58.315Z,100150.03
2023-01-20T07:50:01.073Z,100159.88
2023-01-20T07:55:05.928Z,100158.91
2023-01-20T08:00:10.441Z,100168.63
2023-01-20T08:05:13.679Z,100170.34
2023-01-20T08:10:18.348Z,100182.41
2023-01-20T08:15:21.079Z,100203.19
2023-01-20T08:20:23.907Z,100214.34
2023-01-20T08:25:28.059Z,100228.28
2023-01-20T08:30:30.862Z,100225.31
2023-01-20T08:35:35.457Z,100224.06
2023-01-20T08:40:42.188Z,100226.47
2023-01-20T08:45:45.036Z,100222.78
2023-01-20T08:50:47.767Z,100229.47
2023-01-20T08:55:58.563Z,100237.50
2023-01-20T09:01:01.592Z,100242.34
2023-01-20T09:06:04.670Z,100246.34
2023-01-20T09:11:09.907Z,100255.97
2023-01-20T09:16:13.227Z,100251.31
2023-01-20T09:21:16.015Z,100254.94
2023-01-20T09:26:34.850Z,100266.53
2023-01-20T09:31:39.086Z,100280.63
2023-01-20T09:36:41.957Z,100289.97
2023-01-20T09:42:05.592Z,100294.25
2023-01-20T09:47:21.433Z,100298.97
2023-01-20T09:52:44.152Z,100304.84
2023-01-20T09:57:50.111Z,100309.69
2023-01-20T10:02:55.878Z,100300.34
2023-01-20T10:07:59.828Z,100302.25
2023-01-20T10:13:06.371Z,100297.63
2023-01-20T10:18:10.349Z,100295.50
2023-01-20T10:23:15.475Z,100301.38
2023-01-20T10:28:21.564Z,100294.72
2023-01-20T10:33:26.226Z,100296.22
2023-01-20T10:38:37.389Z,100295.75
2023-01-20T10:43:41.640Z,100298.00
2023-01-20T10:48:53.756Z,100290.69
2023-01-20T10:54:01.481Z,100309.81
2023-01-20T10:59:09.384Z,100314.38
2023-01-20T11:04:17.915Z,100323.59
2023-01-20T11:09:27.187Z,100323.38
2023-01-20T11:14:31.499Z,100323.06
2023-01-20T11:19:52.610Z,100311.50
2023-01-20T11:24:56.112Z,100344.44
2023-01-20T11:30:01.305Z,100337.25
2023-01-20T11:35:19.954Z,100338.53
2023-01-20T11:40:24.024Z,100336.84
2023-01-20T11:45:30.276Z,100343.78
2023-01-20T11:50:34.521Z,100347.84
2023-01-20T11:55:37.464Z,100356.63
2023-01-20T12:00:42.146Z,100357.66
2023-01-20T12:05:48.273Z,100358.75
2023-01-20T12:10:51.077Z,100355.63
2023-01-20T12:15:56.203Z,100360.75
2023-01-20T12:21:00.118Z,100367.81
2023-01-20T12:26:03.606Z,100378.41
2023-01-20T12:31:08.092Z,100377.69
2023-01-20T12:36:37.579Z,100376.81
2023-01-20T12:41:49.548Z,100384.13
2023-01-20T12:46:55.839Z,100389.13
2023-01-20T12:52:06.150Z,100391.63
2023-01-20T12:57:12.844Z,100388.81
2023-01-20T13:02:37.532Z,100398.13
2023-01-20T13:07:48.940Z,100410.09
2023-01-20T13:12:54.916Z,100408.06
2023-01-20T13:18:21.681Z,100414.47
2023-01-20T13:23:27.051Z,100418.41
2023-01-20T13:28:30.726Z,100427.91
2023-01-20T13:33:38.059Z,100433.28
2023-01-20T13:38:40.998Z,100433.91
2023-01-20T13:43:50.172Z,100449.66
2023-01-20T13:49:31.941Z,100453.69
2023-01-20T13:54:45.337Z,100451.66
2023-01-20T13:59:48.116Z,100454.41
2023-01-20T14:04:52.493Z,100459.69
2023-01-20T14:09:55.636Z,100460.22
2023-01-20T14:14:58.425Z,100468.75
2023-01-20T14:20:02.567Z,100451.06
2023-01-20T14:25:19.919Z,100473.44
2023-01-20T14:30:23.795Z,100471.88
2023-01-20T14:35:31.017Z,100476.28
2023-01-20T14:40:34.786Z,100488.59
2023-01-20T14:45:37.584Z,100495.47
2023-01-20T14:50:41.757Z,100494.16
2023-01-20T14:55:44.712Z,100501.25
2023-01-20T15:00:47.651Z,100502.09
2023-01-20T15:05:56.264Z,100516.38
2023-01-20T15:11:21.212Z,100517.72
2023-01-20T15:16:25.952Z,100526.28
2023-01-20T15:21:30.300Z,100531.41
2023-01-20T15:26:34.449Z,100544.25
2023-01-20T15:31:37.249Z,100548.66
2023-01-20T15:36:41.478Z,100549.41
2023-01-20T15:41:45.116Z,100565.94
2023-01-20T15:46:48.063Z,100560.34
2023-01-20T15:51:52.302Z,100571.13
2023-01-20T15:56:55.141Z,100584.81
2023-01-20T16:01:59.323Z,100591.97
2023-01-20T16:07:03.657Z,100599.59
2023-01-20T16:12:06.763Z,100609.09
2023-01-20T16:17:14.418Z,100613.78
2023-01-20T16:22:18.739Z,100615.28
2023-01-20T16:27:22.286Z,100626.50
2023-01-20T16:32:25.088Z,100627.75
2023-01-20T16:37:29.307Z,100627.50
2023-01-20T16:42:32.263Z,100635.59
2023-01-20T16:47:35.065Z,100641.47
2023-01-20T16:52:39.472Z,100648.22
2023-01-20T16:57:43.095Z,100658.59
2023-01-20T17:02:49.540Z,100666.09
2023-01-20T17:07:54.363Z,100674.16
2023-01-20T17:12:57.745Z,100670.94
2023-01-20T17:18:00.611Z,100670.09
2023-01-20T17:23:04.913Z,100686.59
2023-01-20T17:28:07.733Z,100694.88
2023-01-20T17:33:10.587Z,100697.94
2023-01-20T17:38:14.831Z,100701.22
2023-01-20T17:43:17.685Z,100702.03
2023-01-20T17:48:20.571Z,100713.59
2023-01-20T17:53:24.735Z,100719.91
2023-01-20T17:58:28.681Z,100722.41
2023-01-20T18:03:31.494Z,100729.19
2023-01-20T18:08:35.794Z,100729.19
2023-01-20T18:13:38.688Z,100743.03
2023-01-20T18:18:41.778Z,100745.22
2023-01-20T18:23:46.519Z,100752.13
2023-01-20T18:28:49.425Z,100750.09
2023-01-20T18:33:53.253Z,100759.91
2023-01-20T18:38:58.326Z,100768.16
2023-01-20T18:44:01.157Z,100771.31
2023-01-20T18:49:05.114Z,100778.69
2023-01-20T18:54:11.250Z,100779.88
2023-01-20T18:59:14.103Z,100781.06
2023-01-20T19:04:16.983Z,100793.09
2023-01-20T19:09:21.328Z,100785.91
2023-01-20T19:14:24.232Z,100792.31
2023-01-20T19:19:27.034Z,100794.38
2023-01-20T19:24:31.230Z,100803.81
2023-01-20T19:29:34.093Z,100802.84
2023-01-20T19:34:36.939Z,100808.63
2023-01-20T19:39:41.196Z,100818.38
2023-01-20T19:44:44.136Z,100819.25
2023-01-20T19:49:46.997Z,100824.81
2023-01-20T19:54:52.014Z,100830.38
2023-01-20T19:59:54.962Z,100829.63
2023-01-20T20:04:58.102Z,100836.19
2023-01-20T20:10:02.378Z,100844.88
2023-01-20T20:15:05.930Z,100846.59
2023-01-20T20:20:09.902Z,100844.66
2023-01-20T20:25:14.103Z,100852.69
2023-01-20T20:30:19.151Z,100859.13
2023-01-20T20:35:21.954Z,100854.44
2023-01-20T20:40:26.839Z,100854.75
2023-01-20T20:45:29.609Z,100866.44
2023-01-20T20:50:32.458Z,100869.97
2023-01-20T20:55:39.796Z,100868.03
2023-01-20T21:00:42.670Z,100879.22
2023-01-20T21:05:46.937Z,100877.28
2023-01-20T21:10:51.098Z,100880.72
2023-01-20T21:15:59.426Z,100893.38
2023-01-20T21:21:02.441Z,100899.25
2023-01-20T21:26:09.730Z,100903.41
2023-01-20T21:31:13.723Z,100906.88
2023-01-20T21:36:16.625Z,100911.19
2023-01-20T21:41:20.928Z,100922.75
2023-01-20T21:46:24.775Z,100927.16
2023-01-20T21:51:45.262Z,100934.34
2023-01-20T21:56:49.570Z,100937.88
2023-01-20T22:01:52.389Z,100937.13
2023-01-20T22:06:55.218Z,100945.03
2023-01-20T22:11:59.381Z,100947.50
2023-01-20T22:17:02.158Z,100956.88
2023-01-20T22:22:05.092Z,100960.59
2023-01-20T22:27:09.290Z,100958.78
2023-01-20T22:32:12.101Z,100972.19
2023-01-20T22:37:14.892Z,100967.50
2023-01-20T22:42:19.071Z,100979.00
2023-01-20T22:47:21.917Z,100987.03
2023-01-20T22:52:24.810Z,100986.66
2023-01-20T22:57:30.487Z,100989.59
2023-01-20T23:02:33.348Z,100994.13
2023-01-20T23:07:37.491Z,101004.66
2023-01-20T23:12:41.743Z,101011.81
2023-01-20T23:17:44.483Z,101013.56
2023-01-20T23:22:47.233Z,101013.66
2023-01-20T23:27:51.335Z,101023.44
2023-01-20T23:32:54.122Z,101028.22
2023-01-20T23:37:56.882Z,101028.13
2023-01-20T23:43:01.321Z,101033.72
2023-01-20T23:48:04.146Z,101035.31
2023-01-20T23:53:06.953Z,101037.47
2023-01-20T23:58:11.098Z,101033.59
